Time;durP1;ratioP1;P1;durP2;ratioP2;P2;SDS_P1;SDS_P2;PMS_P1;PMS_P2;Temp;Humidity;BMP_temperature;BMP_pressure;BME280_temperature;BME280_humidity;BME280_pressure;Samples;Min_cycle;Max_cycle;Signal;HPM_P1;HPM_P2
2021/10/15 00:03:03;;;;;;;1.10;0.73;;;;;;;-140.79;100.00;63287.88;5209306;22;20085;-63
2021/10/15 00:05:29;;;;;;;1.70;0.93;;;;;;;-140.79;100.00;63287.88;4983526;28;20038;-63
2021/10/15 00:07:55;;;;;;;1.02;0.50;;;;;;;-140.79;100.00;63287.88;4984333;28;20049;-63
2021/10/15 00:10:20;;;;;;;0.90;0.57;;;;;;;-140.79;100.00;63287.88;4985876;28;20035;-63
2021/10/15 00:12:46;;;;;;;1.30;0.50;;;;;;;-140.79;100.00;63287.88;4985115;28;20037;-62
2021/10/15 00:15:11;;;;;;;1.00;0.50;;;;;;;-140.79;100.00;63287.88;4985768;28;20022;-63
2021/10/15 00:17:37;;;;;;;1.13;0.70;;;;;;;-140.79;100.00;63287.88;4985364;28;20431;-63
2021/10/15 00:20:04;;;;;;;1.48;0.60;;;;;;;-140.79;100.00;63287.88;4984430;28;20673;-63
2021/10/15 00:22:29;;;;;;;1.20;0.55;;;;;;;-140.79;100.00;63287.88;4985007;28;20015;-63
2021/10/15 00:24:54;;;;;;;1.55;0.80;;;;;;;-140.79;100.00;63287.88;4985602;28;20019;-63
2021/10/15 00:27:20;;;;;;;1.25;0.57;;;;;;;-140.79;100.00;63287.88;4985595;28;20030;-64
2021/10/15 00:29:45;;;;;;;1.08;0.52;;;;;;;-140.79;100.00;63287.88;4967762;28;20030;-64
2021/10/15 00:32:11;;;;;;;0.80;0.40;;;;;;;-140.79;100.00;63287.88;4984141;28;20030;-63
2021/10/15 00:34:38;;;;;;;0.68;0.40;;;;;;;-140.79;100.00;63287.88;4971984;28;20030;-63
2021/10/15 00:37:04;;;;;;;0.68;0.45;;;;;;;-140.79;100.00;63287.88;4989059;28;20467;-63
2021/10/15 00:39:29;;;;;;;1.60;0.70;;;;;;;-140.79;100.00;63287.88;4971575;28;20030;-64
2021/10/15 00:41:55;;;;;;;1.10;0.60;;;;;;;-140.79;100.00;63287.88;4971360;28;20412;-63
2021/10/15 00:44:20;;;;;;;1.50;0.50;;;;;;;-140.79;100.00;63287.88;4989257;28;20416;-63
2021/10/15 00:46:46;;;;;;;1.00;0.50;;;;;;;-140.79;100.00;63287.88;4987586;28;20563;-63
2021/10/15 00:49:12;;;;;;;1.13;0.60;;;;;;;-140.79;100.00;63287.88;4971423;28;20037;-63
2021/10/15 00:51:37;;;;;;;1.20;0.40;;;;;;;-140.79;100.00;63287.88;4988840;28;20093;-63
2021/10/15 00:54:03;;;;;;;0.93;0.55;;;;;;;-140.79;100.00;63287.88;4971313;28;20926;-63
2021/10/15 00:56:29;;;;;;;1.08;0.55;;;;;;;-140.79;100.00;63287.88;4971275;28;20022;-63
2021/10/15 00:58:55;;;;;;;1.05;0.60;;;;;;;-140.79;100.00;63287.88;4987353;28;20708;-63
2021/10/15 01:01:20;;;;;;;1.30;0.60;;;;;;;-140.79;100.00;63287.88;4988438;28;20019;-62
2021/10/15 01:03:46;;;;;;;0.80;0.52;;;;;;;-140.79;100.00;63287.88;4988394;28;20122;-63
2021/10/15 01:06:11;;;;;;;1.17;0.70;;;;;;;-140.79;100.00;63287.88;4988800;28;20601;-63
2021/10/15 01:08:42;;;;;;;1.17;0.60;;;;;;;-140.79;100.00;63287.88;4970905;28;20030;-63
2021/10/15 01:11:08;;;;;;;1.35;0.50;;;;;;;-140.79;100.00;63287.88;4988585;28;20034;-63
2021/10/15 01:13:33;;;;;;;1.08;0.50;;;;;;;-140.79;100.00;63287.88;4970841;28;20026;-63
2021/10/15 01:16:06;;;;;;;0.77;0.50;;;;;;;-140.79;100.00;63287.88;4987291;28;20053;-63
2021/10/15 01:18:32;;;;;;;1.30;0.50;;;;;;;-140.79;100.00;63287.88;4988505;28;20018;-63
2021/10/15 01:20:57;;;;;;;0.93;0.45;;;;;;;-140.79;100.00;63287.88;4988300;28;20027;-62
2021/10/15 01:23:22;;;;;;;1.90;0.50;;;;;;;-140.79;100.00;63287.88;4987872;28;20030;-62
2021/10/15 01:25:50;;;;;;;0.73;0.55;;;;;;;-140.79;100.00;63287.88;4970751;28;20117;-62
2021/10/15 01:28:15;;;;;;;1.00;0.50;;;;;;;-140.79;100.00;63287.88;4970575;28;20022;-62
2021/10/15 01:30:41;;;;;;;0.88;0.60;;;;;;;-140.79;100.00;63287.88;4988237;28;20041;-62
2021/10/15 01:33:06;;;;;;;0.93;0.43;;;;;;;-140.79;100.00;63287.88;4970458;28;20022;-62
2021/10/15 01:35:32;;;;;;;0.93;0.40;;;;;;;-140.79;100.00;63287.88;4988225;28;20117;-62
2021/10/15 01:37:57;;;;;;;0.95;0.68;;;;;;;-140.79;100.00;63287.88;4988031;28;20072;-62
2021/10/15 01:40:23;;;;;;;1.45;0.47;;;;;;;-140.79;100.00;63287.88;4987796;28;20480;-62
2021/10/15 01:42:54;;;;;;;1.42;0.60;;;;;;;-140.79;100.00;63287.88;4987579;28;20034;-62
2021/10/15 01:45:23;;;;;;;0.77;0.47;;;;;;;-140.79;100.00;63287.88;4987700;28;20033;-62
2021/10/15 01:47:49;;;;;;;1.17;0.50;;;;;;;-140.79;100.00;63287.88;4986509;28;20113;-62
2021/10/15 01:50:14;;;;;;;1.35;0.40;;;;;;;-140.79;100.00;63287.88;4988003;28;20861;-62
2021/10/15 01:52:40;;;;;;;0.60;0.38;;;;;;;-140.79;100.00;63287.88;4987938;28;20554;-61
2021/10/15 01:55:06;;;;;;;1.10;0.50;;;;;;;-140.79;100.00;63287.88;4987751;28;20508;-62
2021/10/15 01:57:32;;;;;;;0.82;0.50;;;;;;;-140.79;100.00;63287.88;4987331;28;20064;-62
2021/10/15 01:59:57;;;;;;;1.30;0.60;;;;;;;-140.79;100.00;63287.88;4987763;28;20575;-62
2021/10/15 02:02:23;;;;;;;0.90;0.50;;;;;;;-140.79;100.00;63287.88;4987377;28;20093;-62
2021/10/15 02:04:48;;;;;;;0.73;0.40;;;;;;;-140.79;100.00;63287.88;4987975;28;20492;-62
2021/10/15 02:07:14;;;;;;;0.80;0.40;;;;;;;-140.79;100.00;63287.88;4987653;28;20591;-62
2021/10/15 02:09:39;;;;;;;1.13;0.50;;;;;;;-140.79;100.00;63287.88;4989008;28;20025;-62
2021/10/15 02:12:05;;;;;;;1.85;0.57;;;;;;;-140.79;100.00;63287.88;5000038;28;20022;-61
2021/10/15 02:14:30;;;;;;;0.77;0.40;;;;;;;-140.79;100.00;63287.88;5004442;28;20037;-62
2021/10/15 02:16:56;;;;;;;0.80;0.47;;;;;;;-140.79;100.00;63287.88;4987159;28;20029;-62
2021/10/15 02:19:22;;;;;;;1.17;0.60;;;;;;;-140.79;100.00;63287.88;5006425;28;20499;-62
2021/10/15 02:21:47;;;;;;;0.80;0.40;;;;;;;-140.79;100.00;63287.88;4976292;28;20030;-62
2021/10/15 02:24:13;;;;;;;1.02;0.43;;;;;;;-140.79;100.00;63287.88;4969028;28;20118;-62
2021/10/15 02:26:38;;;;;;;0.73;0.40;;;;;;;-140.79;100.00;63287.88;4996796;28;20018;-63
2021/10/15 02:29:03;;;;;;;0.80;0.40;;;;;;;-140.79;100.00;63287.88;4988415;28;20041;-62
2021/10/15 02:31:29;;;;;;;0.85;0.57;;;;;;;-140.79;100.00;63287.88;4998094;28;20026;-62
2021/10/15 02:33:55;;;;;;;0.52;0.32;;;;;;;-140.79;100.00;63287.88;4986297;28;20023;-62
2021/10/15 02:36:20;;;;;;;1.25;0.63;;;;;;;-140.79;100.00;63287.88;4986696;28;20033;-63
2021/10/15 02:38:46;;;;;;;0.73;0.40;;;;;;;-140.79;100.00;63287.88;4986162;28;20033;-63
2021/10/15 02:41:12;;;;;;;0.77;0.47;;;;;;;-140.79;100.00;63287.88;4969247;28;20038;-63
2021/10/15 02:43:37;;;;;;;0.77;0.40;;;;;;;-140.79;100.00;63287.88;4995745;28;20028;-62
2021/10/15 02:46:03;;;;;;;0.80;0.60;;;;;;;-140.79;100.00;63287.88;4988278;28;20037;-62
2021/10/15 02:48:28;;;;;;;1.00;0.45;;;;;;;-140.79;100.00;63287.88;4998237;28;20040;-62
2021/10/15 02:50:54;;;;;;;1.10;0.60;;;;;;;-140.79;100.00;63287.88;4986538;28;20038;-62
2021/10/15 02:53:19;;;;;;;1.02;0.50;;;;;;;-140.79;100.00;63287.88;4985783;28;20030;-62
2021/10/15 02:55:44;;;;;;;1.00;0.40;;;;;;;-140.79;100.00;63287.88;4985796;28;20030;-62
2021/10/15 02:58:10;;;;;;;1.25;0.60;;;;;;;-140.79;100.00;63287.88;4985872;28;20022;-63
2021/10/15 03:00:35;;;;;;;0.77;0.50;;;;;;;-140.79;100.00;63287.88;4986224;28;20027;-63
2021/10/15 03:03:01;;;;;;;0.70;0.40;;;;;;;-140.79;100.00;63287.88;4968397;28;20461;-63
2021/10/15 03:05:26;;;;;;;0.60;0.40;;;;;;;-140.79;100.00;63287.88;4986017;28;20033;-63
2021/10/15 03:07:52;;;;;;;1.80;0.40;;;;;;;-140.79;100.00;63287.88;4968211;28;20037;-62
2021/10/15 03:10:17;;;;;;;0.60;0.30;;;;;;;-140.79;100.00;63287.88;4985401;28;20034;-62
2021/10/15 03:12:43;;;;;;;0.68;0.43;;;;;;;-140.79;100.00;63287.88;4986085;28;20481;-62
2021/10/15 03:15:09;;;;;;;0.80;0.55;;;;;;;-140.79;100.00;63287.88;4986067;28;20026;-61
2021/10/15 03:17:34;;;;;;;0.68;0.30;;;;;;;-140.79;100.00;63287.88;4993520;28;20026;-62
2021/10/15 03:19:59;;;;;;;1.00;0.40;;;;;;;-140.79;100.00;63287.88;5005328;28;20535;-62
2021/10/15 03:22:25;;;;;;;0.75;0.40;;;;;;;-140.79;100.00;63287.88;5005314;28;20029;-62
2021/10/15 03:24:50;;;;;;;0.93;0.40;;;;;;;-140.79;100.00;63287.88;4992770;28;20030;-62
2021/10/15 03:27:16;;;;;;;0.75;0.40;;;;;;;-140.79;100.00;63287.88;4985692;28;20026;-62
2021/10/15 03:29:41;;;;;;;0.80;0.40;;;;;;;-140.79;100.00;63287.88;4986330;28;20022;-61
2021/10/15 03:32:07;;;;;;;1.40;0.50;;;;;;;-140.79;100.00;63287.88;4990159;28;20030;-61
2021/10/15 03:34:32;;;;;;;1.15;0.57;;;;;;;-140.79;100.00;63287.88;4969458;28;20532;-62
2021/10/15 03:36:58;;;;;;;1.90;0.90;;;;;;;-140.79;100.00;63287.88;5000662;28;20739;-61
2021/10/15 03:39:23;;;;;;;0.77;0.30;;;;;;;-140.79;100.00;63287.88;5006021;28;20029;-61
2021/10/15 03:41:49;;;;;;;0.68;0.30;;;;;;;-140.79;100.00;63287.88;5005399;28;20069;-61
2021/10/15 03:44:14;;;;;;;0.88;0.40;;;;;;;-140.79;100.00;63287.88;5005337;28;20033;-61
2021/10/15 03:46:40;;;;;;;1.00;0.40;;;;;;;-140.79;100.00;63287.88;5005789;28;20030;-62
2021/10/15 03:49:05;;;;;;;1.05;0.50;;;;;;;-140.79;100.00;63287.88;4989423;28;20408;-62
2021/10/15 03:51:30;;;;;;;0.93;0.40;;;;;;;-140.79;100.00;63287.88;4984669;28;20507;-61
2021/10/15 03:53:56;;;;;;;1.00;0.40;;;;;;;-140.79;100.00;63287.88;4985494;28;20416;-61
2021/10/15 03:56:21;;;;;;;0.43;0.30;;;;;;;-140.79;100.00;63287.88;4985222;28;20041;-62
2021/10/15 03:58:47;;;;;;;0.68;0.30;;;;;;;-140.79;100.00;63287.88;4985205;28;20029;-61
2021/10/15 04:01:12;;;;;;;0.85;0.43;;;;;;;-140.79;100.00;63287.88;4985271;28;20034;-62
2021/10/15 04:03:38;;;;;;;0.70;0.30;;;;;;;-140.79;100.00;63287.88;4985127;28;20073;-62
2021/10/15 04:06:03;;;;;;;1.10;0.40;;;;;;;-140.79;100.00;63287.88;4984877;28;20026;-62
2021/10/15 04:08:29;;;;;;;0.85;0.40;;;;;;;-140.79;100.00;63287.88;4984633;28;20109;-62
2021/10/15 04:10:54;;;;;;;0.70;0.30;;;;;;;-140.79;100.00;63287.88;4967299;28;20022;-62
2021/10/15 04:13:20;;;;;;;0.80;0.50;;;;;;;-140.79;100.00;63287.88;4984844;28;20022;-62
2021/10/15 04:15:45;;;;;;;0.70;0.38;;;;;;;-140.79;100.00;63287.88;4973476;28;20048;-62
2021/10/15 04:18:11;;;;;;;0.70;0.38;;;;;;;-140.79;100.00;63287.88;5001787;28;20025;-63
2021/10/15 04:20:36;;;;;;;0.60;0.40;;;;;;;-140.79;100.00;63287.88;5003455;28;20025;-63
2021/10/15 04:23:02;;;;;;;1.27;0.50;;;;;;;-140.79;100.00;63287.88;5003110;28;20495;-62
2021/10/15 04:25:27;;;;;;;1.00;0.40;;;;;;;-140.79;100.00;63287.88;4980818;28;20034;-63
2021/10/15 04:27:53;;;;;;;0.77;0.38;;;;;;;-140.79;100.00;63287.88;5001222;28;20052;-63
2021/10/15 04:30:18;;;;;;;1.08;0.40;;;;;;;-140.79;100.00;63287.88;5000460;28;20033;-63
2021/10/15 04:32:43;;;;;;;0.82;0.50;;;;;;;-140.79;100.00;63287.88;4999814;28;20021;-62
2021/10/15 04:35:09;;;;;;;0.90;0.38;;;;;;;-140.79;100.00;63287.88;5001904;28;20030;-62
2021/10/15 04:37:34;;;;;;;1.00;0.30;;;;;;;-140.79;100.00;63287.88;5002507;28;20704;-63
2021/10/15 04:40:00;;;;;;;1.00;0.50;;;;;;;-140.79;100.00;63287.88;5002680;28;20770;-63
2021/10/15 04:42:25;;;;;;;0.50;0.38;;;;;;;-140.79;100.00;63287.88;4996922;28;20104;-63
2021/10/15 04:44:52;;;;;;;0.77;0.40;;;;;;;-140.79;100.00;63287.88;4976415;28;20026;-64
2021/10/15 04:47:17;;;;;;;0.60;0.30;;;;;;;-140.79;100.00;63287.88;4983998;28;20061;-63
2021/10/15 04:49:43;;;;;;;0.88;0.40;;;;;;;-140.79;100.00;63287.88;4984866;28;20030;-64
2021/10/15 04:52:08;;;;;;;0.45;0.30;;;;;;;-140.79;100.00;63287.88;4966975;28;20030;-61
2021/10/15 04:54:34;;;;;;;1.00;0.40;;;;;;;-140.79;100.00;63287.88;4984084;28;20089;-61
2021/10/15 04:56:59;;;;;;;0.90;0.40;;;;;;;-140.79;100.00;63287.88;4984222;28;20037;-61
2021/10/15 04:59:24;;;;;;;0.77;0.40;;;;;;;-140.79;100.00;63287.88;4984044;28;20030;-61
2021/10/15 05:01:52;;;;;;;0.60;0.30;;;;;;;-140.79;100.00;63287.88;4984216;28;20037;-61
2021/10/15 05:04:17;;;;;;;0.80;0.40;;;;;;;-140.79;100.00;63287.88;4979451;28;20467;-61
2021/10/15 05:06:43;;;;;;;1.23;0.40;;;;;;;-140.79;100.00;63287.88;5003944;28;20041;-61
2021/10/15 05:11:34;;;;;;;0.73;0.38;;;;;;;-140.79;100.00;63287.88;4964362;28;20034;-61
2021/10/15 05:14:00;;;;;;;0.57;0.32;;;;;;;-140.79;100.00;63287.88;4968267;28;20152;-61
2021/10/15 05:16:26;;;;;;;1.02;0.50;;;;;;;-140.79;100.00;63287.88;5001251;28;20113;-60
2021/10/15 05:18:51;;;;;;;0.75;0.40;;;;;;;-140.79;100.00;63287.88;4998814;28;20034;-65
2021/10/15 05:21:17;;;;;;;2.10;0.60;;;;;;;-140.79;100.00;63287.88;4978874;28;20022;-64
2021/10/15 05:23:43;;;;;;;1.15;0.50;;;;;;;-140.79;100.00;63287.88;5000304;28;20500;-64
2021/10/15 05:26:08;;;;;;;0.93;0.40;;;;;;;-140.79;100.00;63287.88;4996374;28;20812;-64
2021/10/15 05:28:34;;;;;;;0.60;0.40;;;;;;;-140.79;100.00;63287.88;4998257;28;20034;-67
2021/10/15 05:30:59;;;;;;;0.98;0.50;;;;;;;-140.79;100.00;63287.88;5004449;28;20096;-67
2021/10/15 05:33:25;;;;;;;1.08;0.47;;;;;;;-140.79;100.00;63287.88;5003942;28;20076;-65
2021/10/15 05:35:50;;;;;;;1.00;0.50;;;;;;;-140.79;100.00;63287.88;4981472;28;20026;-63
2021/10/15 05:38:16;;;;;;;0.95;0.50;;;;;;;-140.79;100.00;63287.88;5002544;28;20025;-64
2021/10/15 05:40:41;;;;;;;0.60;0.35;;;;;;;-140.79;100.00;63287.88;4982509;28;20117;-61
2021/10/15 05:43:07;;;;;;;1.35;0.50;;;;;;;-140.79;100.00;63287.88;4987405;28;20026;-63
2021/10/15 05:45:32;;;;;;;0.70;0.50;;;;;;;-140.79;100.00;63287.88;4996678;28;20033;-63
2021/10/15 05:47:58;;;;;;;0.82;0.35;;;;;;;-140.79;100.00;63287.88;4986875;28;20516;-61
2021/10/15 05:50:25;;;;;;;1.23;0.60;;;;;;;-140.79;100.00;63287.88;4984484;28;20470;-62
2021/10/15 05:52:51;;;;;;;0.90;0.40;;;;;;;-140.79;100.00;63287.88;5003360;28;20104;-64
2021/10/15 05:55:34;;;;;;;1.10;0.47;;;;;;;-140.79;100.00;63287.88;4986130;28;20034;-62
2021/10/15 06:00:43;;;;;;;1.02;0.55;;;;;;;-140.79;100.00;63287.88;5003810;28;20560;-62
2021/10/15 06:03:09;;;;;;;0.93;0.60;;;;;;;-140.79;100.00;63287.88;5004952;28;20065;-62
2021/10/15 06:16:17;;;;;;;1.58;0.77;;;;;;;-140.79;100.00;63287.88;5005772;28;20111;-62
2021/10/15 06:18:51;;;;;;;1.08;0.57;;;;;;;-140.79;100.00;63287.88;5002606;28;20091;-62
2021/10/15 06:21:17;;;;;;;1.88;0.50;;;;;;;-140.79;100.00;63287.88;4987511;28;20415;-62
2021/10/15 06:23:42;;;;;;;1.70;0.80;;;;;;;-140.79;100.00;63287.88;5001448;28;20030;-61
2021/10/15 06:26:08;;;;;;;1.80;0.90;;;;;;;-140.79;100.00;63287.88;5003976;28;20030;-62
2021/10/15 06:28:33;;;;;;;2.00;0.90;;;;;;;-140.79;100.00;63287.88;5002180;28;20033;-62
2021/10/15 06:30:59;;;;;;;2.40;0.70;;;;;;;-140.79;100.00;63287.88;5004381;28;20045;-61
2021/10/15 06:33:24;;;;;;;2.15;0.90;;;;;;;-140.79;100.00;63287.88;4991733;28;20017;-63
2021/10/15 06:35:50;;;;;;;2.20;0.80;;;;;;;-140.79;100.00;63287.88;4986756;28;20026;-63
2021/10/15 06:38:15;;;;;;;1.58;0.73;;;;;;;-140.79;100.00;63287.88;4981247;28;20023;-67
2021/10/15 06:40:41;;;;;;;2.03;1.00;;;;;;;-140.79;100.00;63287.88;5003323;28;20084;-73
2021/10/15 06:43:07;;;;;;;2.50;1.05;;;;;;;-140.79;100.00;63287.88;4985411;28;20034;-66
2021/10/15 06:45:33;;;;;;;2.70;1.23;;;;;;;-140.79;100.00;63287.88;4984344;28;20034;-66
2021/10/15 06:47:59;;;;;;;2.00;1.10;;;;;;;-140.79;100.00;63287.88;4986210;28;20763;-68
2021/10/15 06:50:24;;;;;;;1.92;1.20;;;;;;;-140.79;100.00;63287.88;5001614;28;20037;-64
2021/10/15 06:52:50;;;;;;;2.20;1.08;;;;;;;-140.79;100.00;63287.88;5001735;28;20030;-63
2021/10/15 06:55:20;;;;;;;2.75;1.33;;;;;;;-140.79;100.00;63287.88;5004001;28;20022;-63
2021/10/15 06:57:46;;;;;;;1.77;0.85;;;;;;;-140.79;100.00;63287.88;4999853;28;20040;-65
2021/10/15 07:00:12;;;;;;;2.38;1.30;;;;;;;-140.79;100.00;63287.88;4925017;28;20039;-65
2021/10/15 07:02:38;;;;;;;2.60;1.30;;;;;;;-140.79;100.00;63287.88;4990959;28;20097;-67
2021/10/15 07:05:04;;;;;;;2.80;1.63;;;;;;;-140.79;100.00;63287.88;5000192;28;20026;-66
2021/10/15 07:07:30;;;;;;;2.53;1.30;;;;;;;-140.79;100.00;63287.88;4997454;28;20071;-65
2021/10/15 07:09:55;;;;;;;2.72;1.40;;;;;;;-140.79;100.00;63287.88;4985723;28;20031;-64
2021/10/15 07:12:20;;;;;;;2.53;1.30;;;;;;;-140.79;100.00;63287.88;4996218;28;20026;-66
2021/10/15 07:14:46;;;;;;;4.00;1.65;;;;;;;-140.79;100.00;63287.88;5004732;28;20029;-67
2021/10/15 07:17:11;;;;;;;2.72;1.45;;;;;;;-140.79;100.00;63287.88;4975786;28;20034;-65
2021/10/15 07:19:37;;;;;;;3.22;1.80;;;;;;;-140.79;100.00;63287.88;4979187;28;20492;-66
2021/10/15 07:22:02;;;;;;;3.15;1.55;;;;;;;-140.79;100.00;63287.88;4968176;28;20022;-64
2021/10/15 07:24:28;;;;;;;2.85;1.50;;;;;;;-140.79;100.00;63287.88;4986158;28;20503;-65
2021/10/15 07:26:53;;;;;;;3.35;1.85;;;;;;;-140.79;100.00;63287.88;4985765;28;20096;-65
2021/10/15 07:29:19;;;;;;;3.90;1.67;;;;;;;-140.79;100.00;63287.88;4968115;28;20029;-64
2021/10/15 07:31:44;;;;;;;3.72;1.80;;;;;;;-140.79;100.00;63287.88;4967619;28;20026;-64
2021/10/15 07:34:12;;;;;;;3.53;1.90;;;;;;;-140.79;100.00;63287.88;4995283;28;20022;-66
2021/10/15 07:36:38;;;;;;;5.03;2.22;;;;;;;-140.79;100.00;63287.88;4984791;28;20030;-66
2021/10/15 07:39:04;;;;;;;3.92;2.15;;;;;;;-140.79;100.00;63287.88;4991474;28;20018;-70
2021/10/15 07:41:30;;;;;;;4.50;1.75;;;;;;;-140.79;100.00;63287.88;4975605;28;20037;-66
2021/10/15 07:43:56;;;;;;;3.88;1.85;;;;;;;-140.79;100.00;63287.88;4999650;28;20077;-67
2021/10/15 07:46:21;;;;;;;4.82;2.30;;;;;;;-140.79;100.00;63287.88;4976937;28;20029;-66
2021/10/15 07:48:47;;;;;;;4.97;2.20;;;;;;;-140.79;100.00;63287.88;4983985;28;20018;-65
2021/10/15 07:51:13;;;;;;;3.58;2.08;;;;;;;-140.79;100.00;63287.88;4985441;28;20088;-65
2021/10/15 07:53:38;;;;;;;3.42;1.77;;;;;;;-140.79;100.00;63287.88;4992020;28;20037;-65
2021/10/15 07:56:04;;;;;;;4.90;2.47;;;;;;;-140.79;100.00;63287.88;4985153;28;20026;-65
2021/10/15 07:58:29;;;;;;;3.95;2.47;;;;;;;-140.79;100.00;63287.88;4984745;28;20405;-66
2021/10/15 08:00:54;;;;;;;4.38;2.38;;;;;;;-140.79;100.00;63287.88;5000980;28;20034;-67
2021/10/15 08:03:20;;;;;;;4.68;2.20;;;;;;;-140.79;100.00;63287.88;5003541;28;20038;-67
2021/10/15 08:05:45;;;;;;;5.70;2.40;;;;;;;-140.79;100.00;63287.88;4970787;28;20018;-68
2021/10/15 08:08:11;;;;;;;4.45;2.28;;;;;;;-140.79;100.00;63287.88;4985126;28;20045;-64
2021/10/15 08:10:36;;;;;;;4.57;2.67;;;;;;;-140.79;100.00;63287.88;5007320;28;20029;-64
2021/10/15 08:13:02;;;;;;;4.65;2.20;;;;;;;-140.79;100.00;63287.88;5003188;28;20647;-64
2021/10/15 08:15:28;;;;;;;5.07;2.03;;;;;;;-140.79;100.00;63287.88;5006517;28;20099;-64
2021/10/15 08:17:53;;;;;;;5.28;2.47;;;;;;;-140.79;100.00;63287.88;5004240;28;20096;-64
2021/10/15 08:20:20;;;;;;;4.68;2.30;;;;;;;-140.79;100.00;63287.88;4985707;28;20037;-64
2021/10/15 08:22:46;;;;;;;5.28;2.05;;;;;;;-140.79;100.00;63287.88;4984852;28;20042;-64
2021/10/15 08:25:11;;;;;;;3.42;2.13;;;;;;;-140.79;100.00;63287.88;5004901;28;20044;-64
2021/10/15 08:27:37;;;;;;;4.82;2.50;;;;;;;-140.79;100.00;63287.88;5000042;28;20680;-63
2021/10/15 08:30:04;;;;;;;4.00;2.25;;;;;;;-140.79;100.00;63287.88;4985824;28;20420;-64
2021/10/15 08:32:29;;;;;;;4.35;2.20;;;;;;;-140.79;100.00;63287.88;4988217;28;20124;-63
2021/10/15 08:34:55;;;;;;;4.45;2.50;;;;;;;-140.79;100.00;63287.88;4983938;28;20393;-62
2021/10/15 08:37:20;;;;;;;4.80;2.60;;;;;;;-140.79;100.00;63287.88;5002977;28;20633;-62
2021/10/15 08:39:46;;;;;;;4.72;2.50;;;;;;;-140.79;100.00;63287.88;5000451;28;20040;-64
2021/10/15 08:42:11;;;;;;;5.90;2.70;;;;;;;-140.79;100.00;63287.88;5001211;28;20701;-64
2021/10/15 08:44:42;;;;;;;4.22;2.53;;;;;;;-140.79;100.00;63287.88;5000106;28;20021;-63
2021/10/15 08:47:08;;;;;;;3.97;2.42;;;;;;;-140.79;100.00;63287.88;4984754;28;20029;-63
2021/10/15 08:49:33;;;;;;;4.22;2.33;;;;;;;-140.79;100.00;63287.88;4983955;28;20029;-67
2021/10/15 08:51:58;;;;;;;5.63;2.33;;;;;;;-140.79;100.00;63287.88;5004031;28;20057;-68
2021/10/15 08:54:24;;;;;;;4.95;2.20;;;;;;;-140.79;100.00;63287.88;5005024;28;20049;-68
2021/10/15 08:56:49;;;;;;;5.25;2.75;;;;;;;-140.79;100.00;63287.88;5005142;28;20026;-68
2021/10/15 08:59:23;;;;;;;5.03;2.83;;;;;;;-140.79;100.00;63287.88;5003112;28;20423;-65
2021/10/15 09:01:49;;;;;;;4.95;2.22;;;;;;;-140.79;100.00;63287.88;5007083;28;20034;-65
2021/10/15 09:04:18;;;;;;;4.55;2.50;;;;;;;-140.79;100.00;63287.88;5007911;28;20096;-64
2021/10/15 09:06:43;;;;;;;5.57;2.38;;;;;;;-140.79;100.00;63287.88;4990919;28;20541;-66
2021/10/15 09:09:09;;;;;;;5.10;2.50;;;;;;;-140.79;100.00;63287.88;4987846;28;20039;-66
2021/10/15 09:11:35;;;;;;;5.82;2.70;;;;;;;-140.79;100.00;63287.88;4999619;28;20037;-63
2021/10/15 09:14:08;;;;;;;4.55;2.20;;;;;;;-140.79;100.00;63287.88;4987968;28;20173;-63
2021/10/15 09:17:04;;;;;;;5.65;2.40;;;;;;;-140.79;100.00;63287.88;4970924;28;20033;-63
2021/10/15 09:19:31;;;;;;;6.07;2.42;;;;;;;-140.79;100.00;63287.88;4987908;28;20018;-62
2021/10/15 09:22:27;;;;;;;5.43;2.53;;;;;;;-140.79;100.00;63287.88;4970115;28;20514;-62
2021/10/15 09:25:03;;;;;;;4.30;2.03;;;;;;;-140.79;100.00;63287.88;4987468;28;20108;-63
2021/10/15 09:27:34;;;;;;;5.10;2.55;;;;;;;-140.79;100.00;63287.88;4987670;28;20026;-64
2021/10/15 09:30:07;;;;;;;4.18;2.13;;;;;;;-140.79;100.00;63287.88;4986694;28;20108;-62
2021/10/15 09:32:35;;;;;;;5.13;2.38;;;;;;;-140.79;100.00;63287.88;4998883;28;20026;-64
2021/10/15 09:35:01;;;;;;;5.13;2.45;;;;;;;-140.79;100.00;63287.88;4980658;28;20123;-63
2021/10/15 09:37:29;;;;;;;5.78;2.50;;;;;;;-140.79;100.00;63287.88;4988272;28;20066;-62
2021/10/15 09:40:04;;;;;;;4.47;2.30;;;;;;;-140.79;100.00;63287.88;4986188;28;20029;-63
2021/10/15 09:42:30;;;;;;;4.28;2.25;;;;;;;-140.79;100.00;63287.88;5003826;28;20084;-62
2021/10/15 09:45:12;;;;;;;3.05;1.80;;;;;;;-140.79;100.00;63287.88;5004819;28;20643;-63
2021/10/15 09:47:38;;;;;;;5.65;2.47;;;;;;;-140.79;100.00;63287.88;5002529;28;20076;-62
2021/10/15 09:50:05;;;;;;;4.85;2.10;;;;;;;-140.79;100.00;63287.88;4978501;28;20038;-62
2021/10/15 09:52:37;;;;;;;5.28;2.65;;;;;;;-140.79;100.00;63287.88;4987434;28;20037;-61
2021/10/15 09:55:03;;;;;;;5.38;2.42;;;;;;;-140.79;100.00;63287.88;4980381;28;20054;-64
2021/10/15 09:57:36;;;;;;;4.80;2.30;;;;;;;-140.79;100.00;63287.88;4991336;28;20108;-64
2021/10/15 10:00:04;;;;;;;4.00;2.20;;;;;;;-140.79;100.00;63287.88;4996667;28;20299;-63
2021/10/15 10:02:30;;;;;;;4.85;2.53;;;;;;;-140.79;100.00;63287.88;4986151;28;20065;-63
2021/10/15 10:04:55;;;;;;;6.70;2.65;;;;;;;-140.79;100.00;63287.88;4987010;28;20014;-62
2021/10/15 10:07:22;;;;;;;4.65;2.45;;;;;;;-140.79;100.00;63287.88;4976267;28;20057;-62
2021/10/15 10:09:48;;;;;;;6.15;2.50;;;;;;;-140.79;100.00;63287.88;5005376;28;20462;-62
2021/10/15 10:12:13;;;;;;;4.75;2.08;;;;;;;-140.79;100.00;63287.88;5001590;28;20021;-61
2021/10/15 10:14:39;;;;;;;5.32;2.17;;;;;;;-140.79;100.00;63287.88;5002543;28;20029;-61
2021/10/15 10:17:05;;;;;;;4.55;2.72;;;;;;;-140.79;100.00;63287.88;5004384;28;20022;-62
2021/10/15 10:19:33;;;;;;;5.35;2.25;;;;;;;-140.79;100.00;63287.88;5003738;28;20125;-62
2021/10/15 10:21:59;;;;;;;4.55;2.13;;;;;;;-140.79;100.00;63287.88;4969769;28;20632;-63
2021/10/15 10:24:26;;;;;;;3.92;2.10;;;;;;;-140.79;100.00;63287.88;4971871;28;20033;-61
2021/10/15 10:26:53;;;;;;;4.97;2.45;;;;;;;-140.79;100.00;63287.88;4969669;28;20022;-63
2021/10/15 10:29:18;;;;;;;4.60;2.20;;;;;;;-140.79;100.00;63287.88;4986794;28;20030;-63
2021/10/15 10:31:44;;;;;;;3.25;1.85;;;;;;;-140.79;100.00;63287.88;4986440;28;20026;-62
2021/10/15 10:34:14;;;;;;;4.53;2.15;;;;;;;-140.79;100.00;63287.88;4986615;28;20081;-63
2021/10/15 10:36:40;;;;;;;4.32;1.98;;;;;;;-140.79;100.00;63287.88;4966434;28;20034;-64
2021/10/15 10:39:18;;;;;;;4.10;2.15;;;;;;;-140.79;100.00;63287.88;4999713;28;20544;-64
2021/10/15 10:42:14;;;;;;;5.47;2.20;;;;;;;-140.79;100.00;63287.88;4993648;28;20038;-63
2021/10/15 10:44:49;;;;;;;5.65;2.10;;;;;;;-140.79;100.00;63287.88;4982908;28;20045;-62
2021/10/15 10:47:15;;;;;;;4.05;2.35;;;;;;;-140.79;100.00;63287.88;4990192;28;20402;-64
2021/10/15 10:50:05;;;;;;;4.10;2.40;;;;;;;-140.79;100.00;63287.88;4969015;28;20110;-63
2021/10/15 10:52:39;;;;;;;4.15;2.15;;;;;;;-140.79;100.00;63287.88;4974761;28;20531;-62
2021/10/15 10:55:05;;;;;;;4.03;2.15;;;;;;;-140.79;100.00;63287.88;4985905;28;20030;-61
2021/10/15 10:57:32;;;;;;;5.18;2.42;;;;;;;-140.79;100.00;63287.88;4986193;28;20031;-62
2021/10/15 11:00:22;;;;;;;3.75;1.80;;;;;;;-140.79;100.00;63287.88;4986173;28;20037;-63
2021/10/15 11:02:58;;;;;;;4.65;2.22;;;;;;;-140.79;100.00;63287.88;4994295;28;20045;-62
2021/10/15 11:05:34;;;;;;;3.53;2.00;;;;;;;-140.79;100.00;63287.88;5002921;28;20530;-61
2021/10/15 11:08:24;;;;;;;4.22;2.22;;;;;;;-140.79;100.00;63287.88;5001146;28;20074;-62
2021/10/15 11:10:51;;;;;;;5.07;2.28;;;;;;;-140.79;100.00;63287.88;4999481;28;20089;-64
2021/10/15 11:13:32;;;;;;;4.93;2.25;;;;;;;-140.79;100.00;63287.88;5004178;28;20025;-63
2021/10/15 11:15:57;;;;;;;4.40;2.08;;;;;;;-140.79;100.00;63287.88;5002754;28;20025;-62
2021/10/15 11:18:23;;;;;;;2.90;1.63;;;;;;;-140.79;100.00;63287.88;5001375;28;20028;-64
2021/10/15 11:20:49;;;;;;;4.80;2.42;;;;;;;-140.79;100.00;63287.88;4986476;28;20033;-64
2021/10/15 11:23:14;;;;;;;3.20;2.13;;;;;;;-140.79;100.00;63287.88;4979340;28;20024;-63
2021/10/15 11:25:41;;;;;;;4.93;2.08;;;;;;;-140.79;100.00;63287.88;4984058;28;20051;-64